Time;durP1;ratioP1;P1;durP2;ratioP2;P2;SDS_P1;SDS_P2;PMS_P1;PMS_P2;Temp;Humidity;BMP_temperature;BMP_pressure;BME280_temperature;BME280_humidity;BME280_pressure;Samples;Min_cycle;Max_cycle;Signal;HPM_P1;HPM_P2
2023/04/01 00:06:03;;;;;;;1999.90;999.90;;;11.60;99.90;;;;;;6687162;88;20292;-76
2023/04/01 00:16:04;;;;;;;1999.90;999.90;;;11.50;99.90;;;;;;6690048;88;20295;-78
2023/04/01 00:26:05;;;;;;;1999.90;999.90;;;11.50;99.90;;;;;;6691106;88;20333;-77
2023/04/01 00:36:08;;;;;;;1999.90;999.90;;;11.40;99.90;;;;;;6704242;88;20692;-77
2023/04/01 00:46:08;;;;;;;1999.90;999.90;;;11.40;99.90;;;;;;6690680;88;20264;-77
2023/04/01 00:56:15;;;;;;;1999.90;999.90;;;11.30;99.90;;;;;;6690927;88;20263;-78
2023/04/01 01:06:38;;;;;;;1999.90;999.90;;;11.40;99.90;;;;;;6689889;88;20805;-76
2023/04/01 01:16:46;;;;;;;1999.90;999.90;;;11.30;99.90;;;;;;6692329;88;20199;-76
2023/04/01 01:27:10;;;;;;;1999.90;999.90;;;11.30;99.90;;;;;;6692104;88;20280;-76
2023/04/01 01:37:16;;;;;;;1999.90;999.90;;;11.30;99.90;;;;;;6685276;88;20913;-76
2023/04/01 01:47:19;;;;;;;1999.90;999.90;;;11.20;99.90;;;;;;6695608;88;20204;-76
2023/04/01 01:57:26;;;;;;;1999.90;999.90;;;11.10;99.90;;;;;;6683000;88;20184;-76
2023/04/01 02:07:31;;;;;;;1999.90;999.90;;;11.10;99.90;;;;;;6703294;88;20318;-76
2023/04/01 02:17:34;;;;;;;1999.90;999.90;;;11.20;99.90;;;;;;6690732;88;20180;-76
2023/04/01 02:27:34;;;;;;;1999.90;999.90;;;11.20;99.90;;;;;;6699830;88;20239;-75
2023/04/01 02:37:36;;;;;;;1999.90;999.90;;;11.20;99.90;;;;;;6706970;88;20197;-77
2023/04/01 02:47:37;;;;;;;1999.90;999.90;;;11.00;99.90;;;;;;6699560;88;20236;-76
2023/04/01 02:57:37;;;;;;;1999.90;999.90;;;10.90;99.90;;;;;;6706324;88;20666;-76
2023/04/01 03:07:38;;;;;;;1999.90;999.90;;;10.80;99.90;;;;;;6696885;88;20190;-77
2023/04/01 03:17:39;;;;;;;1999.90;999.90;;;10.50;99.90;;;;;;6693709;88;20190;-77
2023/04/01 03:27:40;;;;;;;1999.90;999.90;;;10.30;99.90;;;;;;6691907;88;21131;-77
2023/04/01 03:37:40;;;;;;;1999.90;999.90;;;10.00;99.90;;;;;;6692457;88;20201;-77
2023/04/01 03:47:41;;;;;;;1999.90;999.90;;;10.00;99.90;;;;;;6691773;88;20309;-77
2023/04/01 03:57:41;;;;;;;1999.90;999.90;;;10.10;99.90;;;;;;6691092;88;20223;-77
2023/04/01 04:07:42;;;;;;;1999.90;999.90;;;10.30;99.90;;;;;;6692291;88;21096;-77
2023/04/01 04:17:44;;;;;;;1999.90;999.90;;;10.40;99.90;;;;;;6686014;88;20741;-77
2023/04/01 04:27:45;;;;;;;1999.90;999.90;;;10.60;99.90;;;;;;6689569;88;20664;-77
2023/04/01 04:37:45;;;;;;;1999.90;999.90;;;10.60;99.90;;;;;;6690434;88;20206;-76
2023/04/01 04:47:46;;;;;;;1999.90;999.90;;;10.60;99.90;;;;;;6706881;88;20190;-76
2023/04/01 04:57:46;;;;;;;1999.90;999.90;;;10.60;99.90;;;;;;6708188;88;20285;-76
2023/04/01 05:07:47;;;;;;;1999.90;999.90;;;10.50;99.90;;;;;;6708436;88;20220;-77
2023/04/01 05:17:47;;;;;;;1999.90;999.90;;;10.20;99.90;;;;;;6708479;88;20210;-77
2023/04/01 05:27:48;;;;;;;1999.90;999.90;;;10.00;99.90;;;;;;6691056;88;20227;-77
2023/04/01 05:37:49;;;;;;;1999.90;999.90;;;10.00;99.90;;;;;;6691180;88;20927;-78
2023/04/01 05:47:49;;;;;;;1999.90;999.90;;;9.90;99.90;;;;;;6690994;88;20199;-79
2023/04/01 05:57:50;;;;;;;1999.90;999.90;;;9.90;99.90;;;;;;6702490;88;20178;-80
2023/04/01 06:07:57;;;;;;;1999.90;999.90;;;9.80;99.90;;;;;;6697233;88;20252;-79
2023/04/01 06:18:43;;;;;;;1999.90;999.90;;;10.00;99.90;;;;;;6686183;88;20240;-76
2023/04/01 06:29:10;;;;;;;1999.90;999.90;;;10.00;99.90;;;;;;6689931;88;20172;-77
2023/04/01 06:39:22;;;;;;;1999.90;999.90;;;10.10;99.90;;;;;;6688042;88;20207;-78
2023/04/01 06:49:57;;;;;;;1999.90;999.90;;;10.00;99.90;;;;;;6687558;88;21114;-79
2023/04/01 07:00:03;;;;;;;1999.90;999.90;;;10.10;99.90;;;;;;6675434;89;20250;-78
2023/04/01 07:10:10;;;;;;;1999.90;999.90;;;10.20;99.90;;;;;;6694254;88;20224;-78
2023/04/01 07:20:22;;;;;;;1999.90;999.90;;;10.10;99.90;;;;;;6685501;88;20182;-79
2023/04/01 07:30:24;;;;;;;1999.90;999.90;;;10.40;99.90;;;;;;6688533;89;20226;-78
2023/04/01 07:40:40;;;;;;;1999.90;999.90;;;10.40;99.90;;;;;;6687133;89;20841;-78
2023/04/01 07:51:29;;;;;;;1999.90;999.90;;;10.70;99.90;;;;;;6672121;89;20648;-77
2023/04/01 08:02:00;;;;;;;1999.90;999.90;;;10.70;99.90;;;;;;6671199;89;20246;-79
2023/04/01 08:12:35;;;;;;;1999.90;999.90;;;10.60;99.90;;;;;;6674967;89;20674;-79
2023/04/01 08:22:48;;;;;;;1999.90;999.90;;;10.70;99.90;;;;;;6676413;89;20596;-79
2023/04/01 08:33:07;;;;;;;1999.90;999.90;;;10.80;99.90;;;;;;6675109;89;20187;-78
2023/04/01 08:43:27;;;;;;;1999.90;999.90;;;10.90;99.90;;;;;;6675155;89;20184;-78
2023/04/01 08:53:53;;;;;;;1999.90;999.90;;;10.90;99.90;;;;;;6689197;88;20222;-79
2023/04/01 09:04:25;;;;;;;1999.90;999.90;;;10.90;99.90;;;;;;6670639;89;20265;-79
2023/04/01 09:14:50;;;;;;;1999.90;999.90;;;10.80;99.90;;;;;;6674261;89;20358;-78
2023/04/01 09:25:16;;;;;;;1999.90;999.90;;;10.70;99.90;;;;;;6683337;88;20254;-78
2023/04/01 09:35:46;;;;;;;1999.90;999.90;;;10.70;99.90;;;;;;6690097;88;20262;-77
2023/04/01 09:46:06;;;;;;;1999.90;999.90;;;10.70;99.90;;;;;;6677998;88;20218;-77
2023/04/01 09:56:40;;;;;;;1999.90;999.90;;;10.80;99.90;;;;;;6689390;88;20599;-77
2023/04/01 10:07:18;;;;;;;1999.90;999.90;;;11.00;99.90;;;;;;6686166;88;20230;-77
2023/04/01 10:17:44;;;;;;;1999.90;999.90;;;11.10;99.90;;;;;;6688593;88;20195;-76
2023/04/01 10:28:08;;;;;;;1999.90;999.90;;;11.50;99.90;;;;;;6672121;89;20197;-78
2023/04/01 10:38:40;;;;;;;1999.90;999.90;;;11.60;99.90;;;;;;6672753;89;20326;-78
2023/04/01 10:49:02;;;;;;;1999.90;999.90;;;11.40;99.90;;;;;;6681074;88;20211;-78
2023/04/01 10:59:31;;;;;;;1999.90;999.90;;;12.00;99.90;;;;;;6687161;89;20220;-78
2023/04/01 11:09:47;;;;;;;1999.90;999.90;;;11.80;99.90;;;;;;6677594;89;20298;-77
2023/04/01 11:20:17;;;;;;;1999.90;999.90;;;11.80;99.90;;;;;;6669085;89;20195;-78
2023/04/01 11:30:22;;;;;;;1999.90;999.90;;;11.70;99.90;;;;;;6677431;88;20218;-77
2023/04/01 11:41:04;;;;;;;1999.90;999.90;;;11.90;99.90;;;;;;6691123;78;20783;-80
2023/04/01 11:51:04;;;;;;;1999.90;999.90;;;11.50;99.90;;;;;;6723079;88;20239;-80
2023/04/01 12:01:30;;;;;;;1999.90;999.90;;;11.40;99.90;;;;;;6734014;88;20182;-78
2023/04/01 12:12:08;;;;;;;1999.90;999.90;;;11.30;99.90;;;;;;6730771;88;20285;-82
2023/04/01 12:23:00;;;;;;;1999.90;999.90;;;11.30;99.90;;;;;;6734661;88;20206;-81
2023/04/01 12:33:00;;;;;;;1999.90;999.90;;;11.50;99.90;;;;;;6708575;88;20218;-81
2023/04/01 12:43:19;;;;;;;1999.90;999.90;;;11.90;99.90;;;;;;6717068;88;20657;-81
2023/04/01 12:53:59;;;;;;;1999.90;999.90;;;11.90;99.90;;;;;;6721548;88;20182;-83
2023/04/01 13:04:22;;;;;;;1999.90;999.90;;;11.80;99.90;;;;;;6729033;88;20178;-82
2023/04/01 13:14:53;;;;;;;1999.90;999.90;;;11.70;99.90;;;;;;6718526;88;20248;-81
2023/04/01 13:25:15;;;;;;;1999.90;999.90;;;11.60;99.90;;;;;;6718562;88;20206;-77
2023/04/01 13:35:23;;;;;;;1999.90;999.90;;;11.50;99.90;;;;;;6726642;88;20661;-76
2023/04/01 13:45:39;;;;;;;1999.90;999.90;;;11.50;99.90;;;;;;6727374;88;20238;-77
2023/04/01 13:56:07;;;;;;;1999.90;999.90;;;12.00;99.90;;;;;;6729088;88;20213;-77
2023/04/01 14:06:47;;;;;;;1999.90;999.90;;;12.30;99.90;;;;;;6714147;88;20301;-79
2023/04/01 14:17:10;;;;;;;1999.90;999.90;;;12.30;99.90;;;;;;6713062;88;20197;-77
2023/04/01 14:27:37;;;;;;;1999.90;999.90;;;12.80;99.90;;;;;;6704959;88;20213;-78
2023/04/01 14:38:01;;;;;;;1999.90;999.90;;;13.20;99.90;;;;;;6711620;88;20200;-77
2023/04/01 14:48:04;;;;;;;1999.90;999.90;;;12.80;99.90;;;;;;6721535;88;20255;-76
2023/04/01 14:58:11;;;;;;;1999.90;999.90;;;12.90;99.90;;;;;;6717302;88;20197;-79
2023/04/01 15:08:28;;;;;;;1999.90;999.90;;;12.50;99.90;;;;;;6719439;88;20216;-79
2023/04/01 15:18:53;;;;;;;1999.90;999.90;;;12.40;99.90;;;;;;6731945;88;20197;-79
2023/04/01 15:29:10;;;;;;;1999.90;999.90;;;12.50;99.90;;;;;;6716800;88;20209;-78
2023/04/01 15:39:17;;;;;;;1999.90;999.90;;;12.30;99.90;;;;;;6736827;88;20761;-79
2023/04/01 15:49:48;;;;;;;1999.90;999.90;;;12.30;99.90;;;;;;6728353;88;20213;-79
2023/04/01 16:00:04;;;;;;;1999.90;999.90;;;12.10;99.90;;;;;;6729492;88;20215;-80
2023/04/01 16:10:35;;;;;;;1999.90;999.90;;;11.70;99.90;;;;;;6705503;88;20220;-79
2023/04/01 16:20:55;;;;;;;1999.90;999.90;;;11.70;99.90;;;;;;6710444;88;20231;-78
2023/04/01 16:31:15;;;;;;;1999.90;999.90;;;11.60;99.90;;;;;;6702926;88;20283;-79
2023/04/01 16:41:36;;;;;;;1999.90;999.90;;;11.40;99.90;;;;;;6708262;88;20158;-80
2023/04/01 16:51:46;;;;;;;1999.90;999.90;;;11.40;99.90;;;;;;6716700;88;20709;-80
2023/04/01 17:02:04;;;;;;;1999.90;999.90;;;11.20;99.90;;;;;;6714424;88;20378;-77
2023/04/01 17:12:17;;;;;;;1999.90;999.90;;;11.40;99.90;;;;;;6727004;88;20183;-81
2023/04/01 17:22:33;;;;;;;1999.90;999.90;;;11.10;99.90;;;;;;6740505;88;20208;-80
2023/04/01 17:33:13;;;;;;;1999.90;999.90;;;10.90;99.90;;;;;;6743130;88;20209;-81
2023/04/01 17:43:32;;;;;;;1999.90;999.90;;;10.70;99.90;;;;;;6697128;77;20192;-80
2023/04/01 17:53:53;;;;;;;1999.90;999.90;;;10.60;99.90;;;;;;6695447;88;20199;-77
2023/04/01 18:04:15;;;;;;;1999.90;999.90;;;10.50;99.90;;;;;;6707315;88;20188;-79
2023/04/01 18:14:43;;;;;;;1999.90;999.90;;;10.50;99.90;;;;;;6691358;88;20202;-79
2023/04/01 18:25:31;;;;;;;1999.90;999.90;;;10.40;99.90;;;;;;6706293;88;20190;-80
2023/04/01 18:35:50;;;;;;;1999.90;999.90;;;10.30;99.90;;;;;;6709552;88;20204;-78
2023/04/01 18:45:58;;;;;;;1999.90;999.90;;;10.20;99.90;;;;;;6713623;88;20227;-80
2023/04/01 18:56:03;;;;;;;1999.90;999.90;;;10.20;99.90;;;;;;6706615;88;20170;-80
2023/04/01 19:06:34;;;;;;;1999.90;999.90;;;10.20;99.90;;;;;;6715610;88;20263;-76
2023/04/01 19:16:46;;;;;;;1999.90;999.90;;;10.20;99.90;;;;;;6696800;88;20208;-79
2023/04/01 19:26:52;;;;;;;1999.90;999.90;;;10.10;99.90;;;;;;6697708;88;20220;-79
2023/04/01 19:37:01;;;;;;;1999.90;999.90;;;10.00;99.90;;;;;;6699043;88;20203;-79
2023/04/01 19:47:16;;;;;;;1999.90;999.90;;;10.00;99.90;;;;;;6706754;88;20215;-79
2023/04/01 19:57:42;;;;;;;1999.90;999.90;;;10.00;99.90;;;;;;6706943;88;20629;-79
2023/04/01 20:07:46;;;;;;;1999.90;999.90;;;9.90;99.90;;;;;;6690631;88;20278;-79
2023/04/01 20:17:48;;;;;;;1999.90;999.90;;;9.90;99.90;;;;;;6701920;88;20194;-79
2023/04/01 20:28:17;;;;;;;1999.90;999.90;;;9.80;99.90;;;;;;6712275;88;20195;-78
2023/04/01 20:38:39;;;;;;;1999.90;999.90;;;9.70;99.90;;;;;;6700150;88;20249;-78
2023/04/01 20:48:58;;;;;;;1999.90;999.90;;;9.60;99.90;;;;;;6711275;88;20239;-78
2023/04/01 20:59:35;;;;;;;1999.90;999.90;;;9.60;99.90;;;;;;6706710;88;20877;-77
2023/04/01 21:09:49;;;;;;;1999.90;999.90;;;9.50;99.90;;;;;;6703130;88;20183;-77
2023/04/01 21:19:58;;;;;;;1999.90;999.90;;;9.50;99.90;;;;;;6705155;88;20217;-77
2023/04/01 21:30:27;;;;;;;1999.90;999.90;;;9.60;99.90;;;;;;6699448;88;20197;-77
2023/04/01 21:40:53;;;;;;;1999.90;999.90;;;9.50;99.90;;;;;;6698310;88;20233;-78
2023/04/01 21:51:33;;;;;;;1999.90;999.90;;;9.40;99.90;;;;;;6694131;88;20207;-77
2023/04/01 22:02:00;;;;;;;1999.90;999.90;;;9.40;99.90;;;;;;6699457;88;20225;-77
2023/04/01 22:12:29;;;;;;;1999.90;999.90;;;9.30;99.90;;;;;;6693963;88;20191;-77
2023/04/01 22:22:59;;;;;;;1999.90;999.90;;;9.30;99.90;;;;;;6700597;88;20672;-76
2023/04/01 22:33:08;;;;;;;1999.90;999.90;;;9.30;99.90;;;;;;6702024;88;20806;-76
2023/04/01 22:43:17;;;;;;;1999.90;999.90;;;9.30;99.90;;;;;;6713084;88;20644;-76
2023/04/01 22:53:26;;;;;;;1999.90;999.90;;;9.40;99.90;;;;;;6690572;88;20179;-76
2023/04/01 23:03:26;;;;;;;1999.90;999.90;;;9.30;99.90;;;;;;6698754;88;20189;-76
2023/04/01 23:13:43;;;;;;;1999.90;999.90;;;9.30;99.90;;;;;;6691023;88;20219;-76
2023/04/01 23:24:09;;;;;;;1999.90;999.90;;;9.30;99.90;;;;;;6700208;88;20610;-76
2023/04/01 23:34:12;;;;;;;1999.90;999.90;;;9.30;99.90;;;;;;6701515;88;20262;-76
2023/04/01 23:44:13;;;;;;;1999.90;999.90;;;9.20;99.90;;;;;;6709507;88;20217;-76
2023/04/01 23:54:22;;;;;;;1999.90;999.90;;;9.20;99.90;;;;;;6711222;88;20187;-75
